sensor_id;sensor_type;location;lat;lon;timestamp;temperature;humidity
36322;DHT22;23564;48.290;11.460;2023-02-26T00:01:34;-0.10;1.00
36322;DHT22;23564;48.290;11.460;2023-02-26T00:04:03;0.00;1.00
36322;DHT22;23564;48.290;11.460;2023-02-26T00:06:32;-0.10;1.00
36322;DHT22;23564;48.290;11.460;2023-02-26T00:08:58;-0.10;1.00
36322;DHT22;23564;48.290;11.460;2023-02-26T00:11:23;-0.10;1.00
36322;DHT22;23564;48.290;11.460;2023-02-26T00:13:50;-0.30;99.90
36322;DHT22;23564;48.290;11.460;2023-02-26T00:16:33;-0.40;1.00
36322;DHT22;23564;48.290;11.460;2023-02-26T00:19:01;-0.50;1.00
36322;DHT22;23564;48.290;11.460;2023-02-26T00:21:28;-0.50;1.00
36322;DHT22;23564;48.290;11.460;2023-02-26T00:23:54;-0.50;1.00
36322;DHT22;23564;48.290;11.460;2023-02-26T00:26:20;-0.50;1.00
36322;DHT22;23564;48.290;11.460;2023-02-26T00:28:47;-0.50;1.00
36322;DHT22;23564;48.290;11.460;2023-02-26T00:31:15;-0.60;1.00
36322;DHT22;23564;48.290;11.460;2023-02-26T00:33:41;-0.60;1.00
36322;DHT22;23564;48.290;11.460;2023-02-26T00:36:22;-0.60;1.00
36322;DHT22;23564;48.290;11.460;2023-02-26T00:39:13;-0.70;1.00
36322;DHT22;23564;48.290;11.460;2023-02-26T00:41:39;-0.70;1.00
36322;DHT22;23564;48.290;11.460;2023-02-26T00:44:05;-0.70;1.00
36322;DHT22;23564;48.290;11.460;2023-02-26T00:46:40;-0.80;1.00
36322;DHT22;23564;48.290;11.460;2023-02-26T00:52:04;-0.80;1.00
36322;DHT22;23564;48.290;11.460;2023-02-26T00:54:30;-0.90;1.00
36322;DHT22;23564;48.290;11.460;2023-02-26T00:56:57;-0.90;1.00
36322;DHT22;23564;48.290;11.460;2023-02-26T00:59:24;-1.00;1.00
36322;DHT22;23564;48.290;11.460;2023-02-26T01:01:50;-1.00;1.00
36322;DHT22;23564;48.290;11.460;2023-02-26T01:04:19;-0.90;1.00
36322;DHT22;23564;48.290;11.460;2023-02-26T01:06:51;-0.90;1.00
36322;DHT22;23564;48.290;11.460;2023-02-26T01:09:31;-0.90;1.00
36322;DHT22;23564;48.290;11.460;2023-02-26T01:12:00;-0.90;1.00
36322;DHT22;23564;48.290;11.460;2023-02-26T01:14:27;-0.90;1.00
36322;DHT22;23564;48.290;11.460;2023-02-26T01:24:47;-1.10;1.00
36322;DHT22;23564;48.290;11.460;2023-02-26T01:27:13;-1.10;1.00
36322;DHT22;23564;48.290;11.460;2023-02-26T01:29:39;-1.10;1.00
36322;DHT22;23564;48.290;11.460;2023-02-26T01:32:17;-1.10;1.00
36322;DHT22;23564;48.290;11.460;2023-02-26T01:35:04;-1.10;99.90
36322;DHT22;23564;48.290;11.460;2023-02-26T01:37:56;-1.20;1.00
36322;DHT22;23564;48.290;11.460;2023-02-26T01:40:57;-1.10;1.00
36322;DHT22;23564;48.290;11.460;2023-02-26T01:49:15;-1.00;1.00
36322;DHT22;23564;48.290;11.460;2023-02-26T01:51:49;-1.00;1.00
36322;DHT22;23564;48.290;11.460;2023-02-26T01:54:20;-1.00;1.00
36322;DHT22;23564;48.290;11.460;2023-02-26T01:57:02;-1.00;99.90
36322;DHT22;23564;48.290;11.460;2023-02-26T01:59:31;-0.90;99.90
36322;DHT22;23564;48.290;11.460;2023-02-26T02:01:58;-0.90;99.90
36322;DHT22;23564;48.290;11.460;2023-02-26T02:04:25;-0.90;99.90
36322;DHT22;23564;48.290;11.460;2023-02-26T02:06:52;-0.90;99.90
36322;DHT22;23564;48.290;11.460;2023-02-26T02:09:18;-0.90;99.90
36322;DHT22;23564;48.290;11.460;2023-02-26T02:17:28;-1.00;99.90
36322;DHT22;23564;48.290;11.460;2023-02-26T02:20:25;-1.00;99.90
36322;DHT22;23564;48.290;11.460;2023-02-26T02:23:18;-1.00;99.90
36322;DHT22;23564;48.290;11.460;2023-02-26T02:26:14;-1.10;99.90
36322;DHT22;23564;48.290;11.460;2023-02-26T02:31:32;-1.20;99.90
36322;DHT22;23564;48.290;11.460;2023-02-26T02:34:15;-1.20;99.90
36322;DHT22;23564;48.290;11.460;2023-02-26T02:36:47;-1.20;99.90
36322;DHT22;23564;48.290;11.460;2023-02-26T02:39:21;-1.30;99.90
36322;DHT22;23564;48.290;11.460;2023-02-26T02:41:52;-1.30;99.90
36322;DHT22;23564;48.290;11.460;2023-02-26T02:44:20;-1.30;99.90
36322;DHT22;23564;48.290;11.460;2023-02-26T02:46:49;-1.30;99.90
36322;DHT22;23564;48.290;11.460;2023-02-26T02:49:33;-1.30;99.90
36322;DHT22;23564;48.290;11.460;2023-02-26T02:52:16;-1.40;99.90
36322;DHT22;23564;48.290;11.460;2023-02-26T02:54:50;-1.40;99.90
36322;DHT22;23564;48.290;11.460;2023-02-26T02:57:25;-1.40;99.90
36322;DHT22;23564;48.290;11.460;2023-02-26T02:59:59;-1.40;99.90
36322;DHT22;23564;48.290;11.460;2023-02-26T03:02:38;-1.40;99.90
36322;DHT22;23564;48.290;11.460;2023-02-26T03:05:06;-1.40;99.90
36322;DHT22;23564;48.290;11.460;2023-02-26T03:07:40;-1.50;99.90
36322;DHT22;23564;48.290;11.460;2023-02-26T03:10:09;-1.50;99.90
36322;DHT22;23564;48.290;11.460;2023-02-26T03:12:35;-1.50;99.90
36322;DHT22;23564;48.290;11.460;2023-02-26T03:15:02;-1.50;99.90
36322;DHT22;23564;48.290;11.460;2023-02-26T03:17:38;-1.50;99.90
36322;DHT22;23564;48.290;11.460;2023-02-26T03:20:31;-1.50;99.90
36322;DHT22;23564;48.290;11.460;2023-02-26T03:23:11;-1.40;99.90
36322;DHT22;23564;48.290;11.460;2023-02-26T03:25:55;-1.40;99.90
36322;DHT22;23564;48.290;11.460;2023-02-26T03:28:37;-1.40;99.90
36322;DHT22;23564;48.290;11.460;2023-02-26T03:31:08;-1.50;99.90
36322;DHT22;23564;48.290;11.460;2023-02-26T03:33:50;-1.60;99.90
36322;DHT22;23564;48.290;11.460;2023-02-26T03:36:24;-1.60;99.90
36322;DHT22;23564;48.290;11.460;2023-02-26T03:44:15;-1.70;99.90
36322;DHT22;23564;48.290;11.460;2023-02-26T03:46:47;-1.60;99.90
36322;DHT22;23564;48.290;11.460;2023-02-26T03:49:19;-1.70;99.90
36322;DHT22;23564;48.290;11.460;2023-02-26T03:51:46;-1.60;99.90
36322;DHT22;23564;48.290;11.460;2023-02-26T03:54:23;-1.60;99.90
36322;DHT22;23564;48.290;11.460;2023-02-26T03:56:51;-1.60;99.90
36322;DHT22;23564;48.290;11.460;2023-02-26T03:59:17;-1.60;99.90
36322;DHT22;23564;48.290;11.460;2023-02-26T04:04:34;-1.60;99.90
36322;DHT22;23564;48.290;11.460;2023-02-26T04:07:10;-1.60;99.90
36322;DHT22;23564;48.290;11.460;2023-02-26T04:09:36;-1.70;99.90
36322;DHT22;23564;48.290;11.460;2023-02-26T04:12:01;-1.70;99.90
36322;DHT22;23564;48.290;11.460;2023-02-26T04:14:28;-1.80;99.90
36322;DHT22;23564;48.290;11.460;2023-02-26T04:16:53;-1.80;99.90
36322;DHT22;23564;48.290;11.460;2023-02-26T04:19:19;-1.90;99.90
36322;DHT22;23564;48.290;11.460;2023-02-26T04:21:44;-1.90;99.90
36322;DHT22;23564;48.290;11.460;2023-02-26T04:24:10;-1.90;99.90
36322;DHT22;23564;48.290;11.460;2023-02-26T04:26:36;-2.00;99.90
36322;DHT22;23564;48.290;11.460;2023-02-26T04:29:01;-2.00;99.90
36322;DHT22;23564;48.290;11.460;2023-02-26T04:31:27;-2.10;99.90
36322;DHT22;23564;48.290;11.460;2023-02-26T04:33:53;-2.00;99.90
36322;DHT22;23564;48.290;11.460;2023-02-26T04:36:19;-2.10;99.90
36322;DHT22;23564;48.290;11.460;2023-02-26T04:38:44;-2.20;99.90
36322;DHT22;23564;48.290;11.460;2023-02-26T04:41:10;-2.20;99.90
36322;DHT22;23564;48.290;11.460;2023-02-26T04:43:35;-2.30;99.90
36322;DHT22;23564;48.290;11.460;2023-02-26T04:46:02;-2.30;99.90
36322;DHT22;23564;48.290;11.460;2023-02-26T04:48:28;-2.30;99.90
36322;DHT22;23564;48.290;11.460;2023-02-26T04:50:53;-2.30;99.90
36322;DHT22;23564;48.290;11.460;2023-02-26T04:53:19;-2.40;99.90
36322;DHT22;23564;48.290;11.460;2023-02-26T04:55:47;-2.40;99.90
36322;DHT22;23564;48.290;11.460;2023-02-26T04:58:13;-2.50;99.90
36322;DHT22;23564;48.290;11.460;2023-02-26T05:00:38;-2.50;99.90
36322;DHT22;23564;48.290;11.460;2023-02-26T05:03:04;-2.50;99.90
36322;DHT22;23564;48.290;11.460;2023-02-26T05:05:30;-2.60;99.90
36322;DHT22;23564;48.290;11.460;2023-02-26T05:07:56;-2.70;99.90
36322;DHT22;23564;48.290;11.460;2023-02-26T05:10:22;-2.70;99.90
36322;DHT22;23564;48.290;11.460;2023-02-26T05:12:48;-2.80;99.90
36322;DHT22;23564;48.290;11.460;2023-02-26T05:15:13;-2.80;99.90
36322;DHT22;23564;48.290;11.460;2023-02-26T05:17:39;-2.90;99.90
36322;DHT22;23564;48.290;11.460;2023-02-26T05:20:05;-2.90;99.90
36322;DHT22;23564;48.290;11.460;2023-02-26T05:22:35;-3.00;99.90
36322;DHT22;23564;48.290;11.460;2023-02-26T05:25:00;-3.10;99.90
36322;DHT22;23564;48.290;11.460;2023-02-26T05:27:26;-3.10;99.90
36322;DHT22;23564;48.290;11.460;2023-02-26T05:29:51;-3.10;99.90
36322;DHT22;23564;48.290;11.460;2023-02-26T05:32:17;-3.10;99.90
36322;DHT22;23564;48.290;11.460;2023-02-26T05:34:42;-3.10;99.90
36322;DHT22;23564;48.290;11.460;2023-02-26T05:37:08;-3.20;99.90
36322;DHT22;23564;48.290;11.460;2023-02-26T05:39:33;-3.20;99.90
36322;DHT22;23564;48.290;11.460;2023-02-26T05:41:59;-3.20;99.90
36322;DHT22;23564;48.290;11.460;2023-02-26T05:44:25;-3.20;99.90
36322;DHT22;23564;48.290;11.460;2023-02-26T05:46:50;-3.20;99.90
36322;DHT22;23564;48.290;11.460;2023-02-26T05:49:16;-3.20;99.90
36322;DHT22;23564;48.290;11.460;2023-02-26T05:51:41;-3.30;99.90
36322;DHT22;23564;48.290;11.460;2023-02-26T05:54:08;-3.30;99.90
36322;DHT22;23564;48.290;11.460;2023-02-26T05:56:34;-3.40;99.90
36322;DHT22;23564;48.290;11.460;2023-02-26T05:59:00;-3.40;99.90
36322;DHT22;23564;48.290;11.460;2023-02-26T06:01:25;-3.40;99.90
36322;DHT22;23564;48.290;11.460;2023-02-26T06:03:51;-3.40;99.90
36322;DHT22;23564;48.290;11.460;2023-02-26T06:06:17;-3.40;99.90
36322;DHT22;23564;48.290;11.460;2023-02-26T06:08:43;-3.40;99.90
36322;DHT22;23564;48.290;11.460;2023-02-26T06:11:09;-3.30;99.90
36322;DHT22;23564;48.290;11.460;2023-02-26T06:13:35;-3.40;99.90
36322;DHT22;23564;48.290;11.460;2023-02-26T06:16:00;-3.40;99.90
36322;DHT22;23564;48.290;11.460;2023-02-26T06:18:26;-3.40;99.90
36322;DHT22;23564;48.290;11.460;2023-02-26T06:20:52;-3.40;99.90
36322;DHT22;23564;48.290;11.460;2023-02-26T06:23:18;-3.40;99.90
36322;DHT22;23564;48.290;11.460;2023-02-26T06:25:44;-3.40;99.90
36322;DHT22;23564;48.290;11.460;2023-02-26T06:28:10;-3.50;99.90
36322;DHT22;23564;48.290;11.460;2023-02-26T06:30:35;-3.40;99.90
36322;DHT22;23564;48.290;11.460;2023-02-26T06:33:01;-3.40;99.90
36322;DHT22;23564;48.290;11.460;2023-02-26T06:35:27;-3.50;99.90
36322;DHT22;23564;48.290;11.460;2023-02-26T06:37:56;-3.50;99.90
36322;DHT22;23564;48.290;11.460;2023-02-26T06:40:22;-3.50;99.90
36322;DHT22;23564;48.290;11.460;2023-02-26T06:42:47;-3.50;99.90
36322;DHT22;23564;48.290;11.460;2023-02-26T06:45:13;-3.50;99.90
36322;DHT22;23564;48.290;11.460;2023-02-26T06:47:39;-3.40;99.90
36322;DHT22;23564;48.290;11.460;2023-02-26T06:50:05;-3.40;99.90
36322;DHT22;23564;48.290;11.460;2023-02-26T06:52:31;-3.30;99.90
36322;DHT22;23564;48.290;11.460;2023-02-26T06:54:57;-3.30;99.90
36322;DHT22;23564;48.290;11.460;2023-02-26T06:57:23;-3.20;99.90
36322;DHT22;23564;48.290;11.460;2023-02-26T06:59:48;-3.20;99.90
36322;DHT22;23564;48.290;11.460;2023-02-26T07:02:22;-3.20;99.90
36322;DHT22;23564;48.290;11.460;2023-02-26T07:04:48;-3.20;99.90
36322;DHT22;23564;48.290;11.460;2023-02-26T07:07:14;-3.20;99.90
36322;DHT22;23564;48.290;11.460;2023-02-26T07:09:40;-3.20;99.90
36322;DHT22;23564;48.290;11.460;2023-02-26T07:12:06;-3.10;99.90
36322;DHT22;23564;48.290;11.460;2023-02-26T07:14:32;-3.10;99.90
36322;DHT22;23564;48.290;11.460;2023-02-26T07:16:58;-3.10;99.90
36322;DHT22;23564;48.290;11.460;2023-02-26T07:19:24;-3.00;99.90
36322;DHT22;23564;48.290;11.460;2023-02-26T07:21:49;-3.00;99.90
36322;DHT22;23564;48.290;11.460;2023-02-26T07:24:15;-3.00;99.90
36322;DHT22;23564;48.290;11.460;2023-02-26T07:26:41;-3.00;99.90
36322;DHT22;23564;48.290;11.460;2023-02-26T07:29:06;-2.90;99.90
36322;DHT22;23564;48.290;11.460;2023-02-26T07:31:32;-2.90;99.90
36322;DHT22;23564;48.290;11.460;2023-02-26T07:33:58;-2.90;99.90
36322;DHT22;23564;48.290;11.460;2023-02-26T07:36:23;-2.90;99.90
36322;DHT22;23564;48.290;11.460;2023-02-26T07:38:49;-2.80;99.90
36322;DHT22;23564;48.290;11.460;2023-02-26T07:41:14;-2.80;99.90
36322;DHT22;23564;48.290;11.460;2023-02-26T07:43:40;-2.70;99.90
36322;DHT22;23564;48.290;11.460;2023-02-26T07:46:07;-2.70;99.90
36322;DHT22;23564;48.290;11.460;2023-02-26T07:48:33;-2.60;99.90
36322;DHT22;23564;48.290;11.460;2023-02-26T07:50:59;-2.60;99.90
36322;DHT22;23564;48.290;11.460;2023-02-26T07:53:25;-2.60;99.90
36322;DHT22;23564;48.290;11.460;2023-02-26T07:55:50;-2.50;99.90
36322;DHT22;23564;48.290;11.460;2023-02-26T07:58:17;-2.40;99.90
36322;DHT22;23564;48.290;11.460;2023-02-26T08:00:42;-2.30;99.90
36322;DHT22;23564;48.290;11.460;2023-02-26T08:03:08;-2.10;99.90
36322;DHT22;23564;48.290;11.460;2023-02-26T08:05:33;-1.80;99.90
36322;DHT22;23564;48.290;11.460;2023-02-26T08:07:59;-1.50;1.00
36322;DHT22;23564;48.290;11.460;2023-02-26T08:10:26;-1.30;99.90
36322;DHT22;23564;48.290;11.460;2023-02-26T08:12:52;-1.20;99.90
36322;DHT22;23564;48.290;11.460;2023-02-26T08:15:18;-1.20;99.90
36322;DHT22;23564;48.290;11.460;2023-02-26T08:17:43;-1.20;99.90
36322;DHT22;23564;48.290;11.460;2023-02-26T08:20:10;-1.10;99.90
36322;DHT22;23564;48.290;11.460;2023-02-26T08:22:36;-0.90;66.50
36322;DHT22;23564;48.290;11.460;2023-02-26T08:25:02;-0.80;99.90
36322;DHT22;23564;48.290;11.460;2023-02-26T08:27:28;-0.90;44.60
36322;DHT22;23564;48.290;11.460;2023-02-26T08:29:53;-0.80;99.90
36322;DHT22;23564;48.290;11.460;2023-02-26T08:32:19;-0.60;1.00
36322;DHT22;23564;48.290;11.460;2023-02-26T08:34:47;-0.40;99.90
36322;DHT22;23564;48.290;11.460;2023-02-26T08:37:13;-0.20;99.90
36322;DHT22;23564;48.290;11.460;2023-02-26T08:39:39;-0.10;99.90
36322;DHT22;23564;48.290;11.460;2023-02-26T08:42:05;0.00;1.00
36322;DHT22;23564;48.290;11.460;2023-02-26T08:44:31;0.30;1.00
36322;DHT22;23564;48.290;11.460;2023-02-26T08:46:57;0.20;1.00
36322;DHT22;23564;48.290;11.460;2023-02-26T08:49:23;0.10;1.00
36322;DHT22;23564;48.290;11.460;2023-02-26T08:51:48;0.00;99.90
36322;DHT22;23564;48.290;11.460;2023-02-26T08:54:14;0.10;99.90
36322;DHT22;23564;48.290;11.460;2023-02-26T08:56:40;0.00;99.90
36322;DHT22;23564;48.290;11.460;2023-02-26T08:59:06;0.00;99.90
36322;DHT22;23564;48.290;11.460;2023-02-26T09:01:34;0.00;99.90
36322;DHT22;23564;48.290;11.460;2023-02-26T09:04:00;0.10;1.00
36322;DHT22;23564;48.290;11.460;2023-02-26T09:06:25;0.00;99.90
36322;DHT22;23564;48.290;11.460;2023-02-26T09:08:51;0.00;84.90
36322;DHT22;23564;48.290;11.460;2023-02-26T09:11:16;0.00;7.60
36322;DHT22;23564;48.290;11.460;2023-02-26T09:13:42;0.20;99.90
36322;DHT22;23564;48.290;11.460;2023-02-26T09:16:08;0.50;1.00
36322;DHT22;23564;48.290;11.460;2023-02-26T09:18:33;0.80;99.90
36322;DHT22;23564;48.290;11.460;2023-02-26T09:21:00;0.80;99.90
36322;DHT22;23564;48.290;11.460;2023-02-26T09:23:26;0.60;1.00
36322;DHT22;23564;48.290;11.460;2023-02-26T09:25:55;0.50;99.90
36322;DHT22;23564;48.290;11.460;2023-02-26T09:28:23;0.60;2.20
36322;DHT22;23564;48.290;11.460;2023-02-26T09:30:55;0.80;99.90
36322;DHT22;23564;48.290;11.460;2023-02-26T09:33:21;0.80;1.00
36322;DHT22;23564;48.290;11.460;2023-02-26T09:35:51;0.80;99.90
36322;DHT22;23564;48.290;11.460;2023-02-26T09:38:17;0.90;1.00
36322;DHT22;23564;48.290;11.460;2023-02-26T09:40:46;0.90;99.90
36322;DHT22;23564;48.290;11.460;2023-02-26T09:48:44;0.60;1.00
36322;DHT22;23564;48.290;11.460;2023-02-26T09:51:16;0.70;1.00
36322;DHT22;23564;48.290;11.460;2023-02-26T09:53:43;0.70;90.10
36322;DHT22;23564;48.290;11.460;2023-02-26T09:56:22;0.70;99.90
36322;DHT22;23564;48.290;11.460;2023-02-26T09:58:49;0.90;53.30
36322;DHT22;23564;48.290;11.460;2023-02-26T10:04:40;1.00;60.80
36322;DHT22;23564;48.290;11.460;2023-02-26T10:12:40;1.10;99.90
36322;DHT22;23564;48.290;11.460;2023-02-26T10:17:51;1.30;99.90
36322;DHT22;23564;48.290;11.460;2023-02-26T10:23:10;1.60;1.00
36322;DHT22;23564;48.290;11.460;2023-02-26T10:26:25;2.00;99.90
36322;DHT22;23564;48.290;11.460;2023-02-26T10:34:22;3.00;1.00
36322;DHT22;23564;48.290;11.460;2023-02-26T10:37:03;3.20;1.00
36322;DHT22;23564;48.290;11.460;2023-02-26T10:39:43;3.20;1.00
36322;DHT22;23564;48.290;11.460;2023-02-26T10:42:41;3.10;1.00
36322;DHT22;23564;48.290;11.460;2023-02-26T10:45:36;3.10;1.00
36322;DHT22;23564;48.290;11.460;2023-02-26T10:50:57;2.70;1.00
36322;DHT22;23564;48.290;11.460;2023-02-26T10:53:25;2.60;1.00
36322;DHT22;23564;48.290;11.460;2023-02-26T10:56:33;2.60;1.00
36322;DHT22;23564;48.290;11.460;2023-02-26T10:58:59;2.70;1.00
36322;DHT22;23564;48.290;11.460;2023-02-26T11:01:27;2.60;1.00
36322;DHT22;23564;48.290;11.460;2023-02-26T11:04:07;2.50;1.00
36322;DHT22;23564;48.290;11.460;2023-02-26T11:06:37;2.20;1.00
36322;DHT22;23564;48.290;11.460;2023-02-26T11:09:07;2.10;1.00
36322;DHT22;23564;48.290;11.460;2023-02-26T11:11:53;2.20;99.90
36322;DHT22;23564;48.290;11.460;2023-02-26T11:14:20;2.40;56.50
36322;DHT22;23564;48.290;11.460;2023-02-26T11:16:53;2.70;39.40
36322;DHT22;23564;48.290;11.460;2023-02-26T11:19:26;2.70;11.80
36322;DHT22;23564;48.290;11.460;2023-02-26T11:21:54;2.80;1.00
36322;DHT22;23564;48.290;11.460;2023-02-26T11:27:02;2.90;1.00
36322;DHT22;23564;48.290;11.460;2023-02-26T11:29:36;2.70;1.00
36322;DHT22;23564;48.290;11.460;2023-02-26T11:32:03;2.50;1.00
36322;DHT22;23564;48.290;11.460;2023-02-26T11:34:29;2.40;66.60
36322;DHT22;23564;48.290;11.460;2023-02-26T11:36:58;2.10;85.80
36322;DHT22;23564;48.290;11.460;2023-02-26T11:39:27;2.00;95.60
36322;DHT22;23564;48.290;11.460;2023-02-26T11:41:57;1.70;1.00
36322;DHT22;23564;48.290;11.460;2023-02-26T11:44:34;1.60;1.00
36322;DHT22;23564;48.290;11.460;2023-02-26T11:47:06;1.80;99.90
36322;DHT22;23564;48.290;11.460;2023-02-26T11:49:32;2.10;92.40
36322;DHT22;23564;48.290;11.460;2023-02-26T11:54:43;2.70;1.00
36322;DHT22;23564;48.290;11.460;2023-02-26T11:57:18;2.90;1.00
36322;DHT22;23564;48.290;11.460;2023-02-26T11:59:49;3.10;1.00
36322;DHT22;23564;48.290;11.460;2023-02-26T12:02:19;3.10;99.90
36322;DHT22;23564;48.290;11.460;2023-02-26T12:04:48;3.10;99.90
36322;DHT22;23564;48.290;11.460;2023-02-26T12:07:15;3.20;99.90
36322;DHT22;23564;48.290;11.460;2023-02-26T12:09:42;3.20;99.90
36322;DHT22;23564;48.290;11.460;2023-02-26T12:17:54;3.00;99.90
36322;DHT22;23564;48.290;11.460;2023-02-26T12:26:38;2.60;99.90
36322;DHT22;23564;48.290;11.460;2023-02-26T12:32:24;3.10;99.90
36322;DHT22;23564;48.290;11.460;2023-02-26T12:43:48;2.60;99.90
36322;DHT22;23564;48.290;11.460;2023-02-26T12:49:30;1.90;1.00
36322;DHT22;23564;48.290;11.460;2023-02-26T12:52:19;1.90;1.00
36322;DHT22;23564;48.290;11.460;2023-02-26T12:55:18;1.80;99.90
36322;DHT22;23564;48.290;11.460;2023-02-26T12:58:21;1.80;99.90
36322;DHT22;23564;48.290;11.460;2023-02-26T13:03:45;2.30;99.90
36322;DHT22;23564;48.290;11.460;2023-02-26T13:06:19;2.40;99.90
36322;DHT22;23564;48.290;11.460;2023-02-26T13:08:56;2.30;99.90
36322;DHT22;23564;48.290;11.460;2023-02-26T13:14:37;2.00;99.90
36322;DHT22;23564;48.290;11.460;2023-02-26T13:17:16;2.00;99.90
36322;DHT22;23564;48.290;11.460;2023-02-26T13:19:51;2.10;99.90
36322;DHT22;23564;48.290;11.460;2023-02-26T13:22:40;2.10;99.90
36322;DHT22;23564;48.290;11.460;2023-02-26T13:28:20;2.20;99.90
36322;DHT22;23564;48.290;11.460;2023-02-26T13:30:49;2.20;99.90
36322;DHT22;23564;48.290;11.460;2023-02-26T13:33:19;2.30;99.90
36322;DHT22;23564;48.290;11.460;2023-02-26T13:35:47;2.50;99.90
36322;DHT22;23564;48.290;11.460;2023-02-26T13:50:16;2.70;59.70
36322;DHT22;23564;48.290;11.460;2023-02-26T13:53:02;2.60;53.60
36322;DHT22;23564;48.290;11.460;2023-02-26T13:55:43;2.70;79.20
36322;DHT22;23564;48.290;11.460;2023-02-26T14:03:32;2.50;49.00
36322;DHT22;23564;48.290;11.460;2023-02-26T14:08:55;2.60;41.30
36322;DHT22;23564;48.290;11.460;2023-02-26T14:11:26;2.60;5.80
36322;DHT22;23564;48.290;11.460;2023-02-26T14:14:09;2.50;16.90
36322;DHT22;23564;48.290;11.460;2023-02-26T14:16:42;2.50;11.60
36322;DHT22;23564;48.290;11.460;2023-02-26T14:22:35;2.20;1.00
36322;DHT22;23564;48.290;11.460;2023-02-26T14:27:45;2.00;1.00
36322;DHT22;23564;48.290;11.460;2023-02-26T14:30:18;1.90;1.00
36322;DHT22;23564;48.290;11.460;2023-02-26T14:35:40;1.90;1.00
36322;DHT22;23564;48.290;11.460;2023-02-26T14:40:39;1.90;1.00
36322;DHT22;23564;48.290;11.460;2023-02-26T14:43:13;1.90;99.90
36322;DHT22;23564;48.290;11.460;2023-02-26T14:45:41;1.80;99.90
36322;DHT22;23564;48.290;11.460;2023-02-26T14:48:16;1.70;1.00
36322;DHT22;23564;48.290;11.460;2023-02-26T14:57:00;1.60;1.00
36322;DHT22;23564;48.290;11.460;2023-02-26T15:02:23;1.70;1.00
36322;DHT22;23564;48.290;11.460;2023-02-26T15:08:05;1.40;1.00
36322;DHT22;23564;48.290;11.460;2023-02-26T15:10:47;1.20;1.00
36322;DHT22;23564;48.290;11.460;2023-02-26T15:19:17;1.10;1.00
36322;DHT22;23564;48.290;11.460;2023-02-26T15:24:42;1.00;1.00
36322;DHT22;23564;48.290;11.460;2023-02-26T15:27:12;1.00;1.00
36322;DHT22;23564;48.290;11.460;2023-02-26T15:29:40;1.10;1.00
36322;DHT22;23564;48.290;11.460;2023-02-26T15:32:27;1.10;12.80
36322;DHT22;23564;48.290;11.460;2023-02-26T15:35:20;1.10;1.00
36322;DHT22;23564;48.290;11.460;2023-02-26T15:37:52;1.10;24.70
36322;DHT22;23564;48.290;11.460;2023-02-26T15:40:19;1.10;48.30
36322;DHT22;23564;48.290;11.460;2023-02-26T15:42:48;1.20;31.70
36322;DHT22;23564;48.290;11.460;2023-02-26T15:45:42;1.30;1.00
36322;DHT22;23564;48.290;11.460;2023-02-26T15:48:18;1.40;8.00
36322;DHT22;23564;48.290;11.460;2023-02-26T15:50:47;1.60;1.00
36322;DHT22;23564;48.290;11.460;2023-02-26T15:53:23;1.60;28.00
36322;DHT22;23564;48.290;11.460;2023-02-26T15:55:52;1.50;1.00
36322;DHT22;23564;48.290;11.460;2023-02-26T16:01:00;1.30;1.00
36322;DHT22;23564;48.290;11.460;2023-02-26T16:03:29;1.10;1.00
36322;DHT22;23564;48.290;11.460;2023-02-26T16:05:56;0.90;1.00
36322;DHT22;23564;48.290;11.460;2023-02-26T16:08:22;0.80;1.00
36322;DHT22;23564;48.290;11.460;2023-02-26T16:10:49;0.70;1.00
36322;DHT22;23564;48.290;11.460;2023-02-26T16:13:22;0.70;1.00
36322;DHT22;23564;48.290;11.460;2023-02-26T16:15:49;0.60;1.00
36322;DHT22;23564;48.290;11.460;2023-02-26T16:18:19;0.60;1.00
36322;DHT22;23564;48.290;11.460;2023-02-26T16:20:48;0.60;1.00
36322;DHT22;23564;48.290;11.460;2023-02-26T16:26:02;0.60;25.60
36322;DHT22;23564;48.290;11.460;2023-02-26T16:28:32;0.60;42.30
36322;DHT22;23564;48.290;11.460;2023-02-26T16:31:02;0.60;1.00
36322;DHT22;23564;48.290;11.460;2023-02-26T16:33:32;0.60;1.00
36322;DHT22;23564;48.290;11.460;2023-02-26T16:36:14;0.60;1.00
36322;DHT22;23564;48.290;11.460;2023-02-26T16:38:48;0.70;1.00
36322;DHT22;23564;48.290;11.460;2023-02-26T16:41:14;0.80;22.60
36322;DHT22;23564;48.290;11.460;2023-02-26T16:43:50;0.80;99.90
36322;DHT22;23564;48.290;11.460;2023-02-26T16:46:25;0.90;99.90
36322;DHT22;23564;48.290;11.460;2023-02-26T16:51:29;0.70;99.90
36322;DHT22;23564;48.290;11.460;2023-02-26T16:54:33;0.60;99.90
36322;DHT22;23564;48.290;11.460;2023-02-26T16:59:36;0.40;1.00
36322;DHT22;23564;48.290;11.460;2023-02-26T17:02:13;0.30;99.90
36322;DHT22;23564;48.290;11.460;2023-02-26T17:04:40;0.20;19.80
36322;DHT22;23564;48.290;11.460;2023-02-26T17:07:22;0.20;1.00
36322;DHT22;23564;48.290;11.460;2023-02-26T17:09:53;0.10;99.90
36322;DHT22;23564;48.290;11.460;2023-02-26T17:12:43;0.10;99.90
36322;DHT22;23564;48.290;11.460;2023-02-26T17:15:39;0.10;89.80
36322;DHT22;23564;48.290;11.460;2023-02-26T17:18:05;0.10;84.80
36322;DHT22;23564;48.290;11.460;2023-02-26T17:20:32;0.10;10.00
36322;DHT22;23564;48.290;11.460;2023-02-26T17:23:00;0.20;39.50
36322;DHT22;23564;48.290;11.460;2023-02-26T17:25:33;0.20;99.90
36322;DHT22;23564;48.290;11.460;2023-02-26T17:27:59;0.20;1.00
36322;DHT22;23564;48.290;11.460;2023-02-26T17:30:26;0.20;99.90
36322;DHT22;23564;48.290;11.460;2023-02-26T17:32:56;0.30;99.90
36322;DHT22;23564;48.290;11.460;2023-02-26T17:35:22;0.40;99.90
36322;DHT22;23564;48.290;11.460;2023-02-26T17:37:47;0.40;99.90
36322;DHT22;23564;48.290;11.460;2023-02-26T17:42:40;0.40;1.00
36322;DHT22;23564;48.290;11.460;2023-02-26T17:45:06;0.50;1.00
36322;DHT22;23564;48.290;11.460;2023-02-26T17:47:31;0.50;99.90
36322;DHT22;23564;48.290;11.460;2023-02-26T17:49:57;0.40;1.00
36322;DHT22;23564;48.290;11.460;2023-02-26T17:52:24;0.40;99.90
36322;DHT22;23564;48.290;11.460;2023-02-26T17:54:50;0.40;99.90
36322;DHT22;23564;48.290;11.460;2023-02-26T17:57:18;0.30;99.90
36322;DHT22;23564;48.290;11.460;2023-02-26T17:59:44;0.30;99.90
36322;DHT22;23564;48.290;11.460;2023-02-26T18:02:21;0.20;99.90
36322;DHT22;23564;48.290;11.460;2023-02-26T18:04:48;0.10;1.00
36322;DHT22;23564;48.290;11.460;2023-02-26T18:07:16;0.00;99.90
36322;DHT22;23564;48.290;11.460;2023-02-26T18:09:43;0.00;99.90
36322;DHT22;23564;48.290;11.460;2023-02-26T18:12:14;0.00;99.90
36322;DHT22;23564;48.290;11.460;2023-02-26T18:14:40;0.00;1.00
36322;DHT22;23564;48.290;11.460;2023-02-26T18:17:09;0.00;99.90
36322;DHT22;23564;48.290;11.460;2023-02-26T18:19:36;-0.10;1.00
36322;DHT22;23564;48.290;11.460;2023-02-26T18:22:01;-0.10;1.00
36322;DHT22;23564;48.290;11.460;2023-02-26T18:24:27;-0.10;1.00
36322;DHT22;23564;48.290;11.460;2023-02-26T18:26:52;-0.10;99.90
36322;DHT22;23564;48.290;11.460;2023-02-26T18:29:18;-0.20;1.00
36322;DHT22;23564;48.290;11.460;2023-02-26T18:31:45;-0.20;99.90
36322;DHT22;23564;48.290;11.460;2023-02-26T18:34:10;-0.30;99.90
36322;DHT22;23564;48.290;11.460;2023-02-26T18:36:37;-0.30;99.90